RYR2PU LHBP-EGSS
Flight info
| Callsign | RYR2PU |
|---|---|
| Flight time | 2h 12m |
| Altitude | 38000 |
| Route | GILEP DCT ZOLKU DCT BEGLA DCT UBUXI DCT DITIS DCT RAPET DCT MASEK DCT ARPEG DCT NOGRO M40 RINIS |
| Aircraft | B738/M-SDE3FGILRWY/SB1 |
Departure
| Time | 2026-05-06 08:11 |
|---|---|
| Airport | Budapest Liszt Ferenc International Airport (LHBP) |
Arrival
| Time | 2026-05-06 10:23 |
|---|---|
| Airport | London Stansted Airport (EGSS) |
| Time | Latitude | Longitude | Altitude | Speed | Heading |
|---|---|---|---|---|---|
| 2026-05-06 07:37 | 47.43362 | 19.25839 | 456 ft | 0 kts | 222° |
| 2026-05-06 08:02 | 47.43363 | 19.25840 | 456 ft | 2 kts | 222° |
| 2026-05-06 08:03 | 47.43382 | 19.25866 | 455 ft | 4 kts | 222° |
| 2026-05-06 08:03 | 47.43402 | 19.25893 | 453 ft | 4 kts | 222° |
| 2026-05-06 08:03 | 47.43419 | 19.25915 | 455 ft | 3 kts | 223° |
| 2026-05-06 08:03 | 47.43432 | 19.25945 | 454 ft | 4 kts | 267° |
| 2026-05-06 08:04 | 47.43429 | 19.25980 | 453 ft | 4 kts | 257° |
| 2026-05-06 08:04 | 47.43431 | 19.25988 | 453 ft | 0 kts | 222° |
| 2026-05-06 08:06 | 47.43422 | 19.25971 | 454 ft | 6 kts | 240° |
| 2026-05-06 08:06 | 47.43445 | 19.25895 | 456 ft | 12 kts | 313° |
| 2026-05-06 08:06 | 47.43499 | 19.25788 | 456 ft | 13 kts | 307° |
| 2026-05-06 08:07 | 47.43564 | 19.25715 | 456 ft | 11 kts | 358° |
| 2026-05-06 08:07 | 47.43629 | 19.25771 | 456 ft | 11 kts | 44° |
| 2026-05-06 08:07 | 47.43683 | 19.25845 | 456 ft | 10 kts | 42° |
| 2026-05-06 08:07 | 47.43737 | 19.25916 | 456 ft | 11 kts | 42° |
| 2026-05-06 08:08 | 47.43807 | 19.26009 | 456 ft | 17 kts | 41° |
| 2026-05-06 08:08 | 47.43897 | 19.26127 | 457 ft | 12 kts | 38° |
| 2026-05-06 08:08 | 47.43972 | 19.26120 | 457 ft | 12 kts | 314° |
| 2026-05-06 08:08 | 47.44037 | 19.26018 | 457 ft | 15 kts | 312° |
| 2026-05-06 08:09 | 47.44119 | 19.25887 | 457 ft | 19 kts | 313° |
| 2026-05-06 08:09 | 47.44218 | 19.25727 | 456 ft | 23 kts | 312° |
| 2026-05-06 08:09 | 47.44330 | 19.25574 | 457 ft | 22 kts | 332° |
| 2026-05-06 08:09 | 47.44466 | 19.25608 | 462 ft | 21 kts | 46° |
| 2026-05-06 08:10 | 47.44496 | 19.25806 | 475 ft | 20 kts | 109° |
| 2026-05-06 08:10 | 47.44408 | 19.25973 | 474 ft | 23 kts | 133° |
| 2026-05-06 08:10 | 47.44148 | 19.26393 | 471 ft | 93 kts | 133° |
| 2026-05-06 08:10 | 47.43553 | 19.27330 | 474 ft | 155 kts | 131° |
| 2026-05-06 08:11 | 47.42780 | 19.28587 | 973 ft | 174 kts | 136° |
| 2026-05-06 08:11 | 47.42027 | 19.30022 | 1879 ft | 172 kts | 122° |
| 2026-05-06 08:11 | 47.41447 | 19.31605 | 2691 ft | 187 kts | 125° |
| 2026-05-06 08:11 | 47.40738 | 19.33429 | 2939 ft | 219 kts | 123° |
| 2026-05-06 08:12 | 47.39944 | 19.35513 | 3267 ft | 244 kts | 125° |
| 2026-05-06 08:12 | 47.39071 | 19.37713 | 3919 ft | 252 kts | 124° |
| 2026-05-06 08:12 | 47.38096 | 19.39875 | 4630 ft | 258 kts | 143° |
| 2026-05-06 08:12 | 47.36509 | 19.41022 | 5345 ft | 256 kts | 175° |
| 2026-05-06 08:13 | 47.34770 | 19.40777 | 6191 ft | 253 kts | 203° |
| 2026-05-06 08:13 | 47.33327 | 19.39341 | 7085 ft | 252 kts | 227° |
| 2026-05-06 08:13 | 47.32330 | 19.37183 | 7917 ft | 258 kts | 239° |
| 2026-05-06 08:13 | 47.31461 | 19.34854 | 8786 ft | 261 kts | 240° |
| 2026-05-06 08:14 | 47.30596 | 19.32476 | 9654 ft | 265 kts | 240° |
| 2026-05-06 08:14 | 47.29728 | 19.30100 | 10416 ft | 273 kts | 241° |
| 2026-05-06 08:14 | 47.28783 | 19.27535 | 10635 ft | 298 kts | 241° |
| 2026-05-06 08:14 | 47.27752 | 19.24758 | 11023 ft | 316 kts | 241° |
| 2026-05-06 08:15 | 47.26676 | 19.21882 | 11694 ft | 323 kts | 241° |
| 2026-05-06 08:15 | 47.25584 | 19.18967 | 12471 ft | 327 kts | 241° |
| 2026-05-06 08:15 | 47.24477 | 19.16017 | 13265 ft | 332 kts | 241° |
| 2026-05-06 08:15 | 47.23352 | 19.13027 | 13988 ft | 336 kts | 241° |
| 2026-05-06 08:16 | 47.22208 | 19.09994 | 14677 ft | 341 kts | 241° |
| 2026-05-06 08:16 | 47.21067 | 19.06920 | 15359 ft | 345 kts | 245° |
| 2026-05-06 08:16 | 47.20448 | 19.03505 | 16021 ft | 350 kts | 265° |
| 2026-05-06 08:16 | 47.20669 | 18.99933 | 16718 ft | 356 kts | 283° |
| 2026-05-06 08:17 | 47.21663 | 18.96579 | 17367 ft | 364 kts | 302° |
| 2026-05-06 08:17 | 47.23180 | 18.93574 | 18035 ft | 369 kts | 306° |
| 2026-05-06 08:17 | 47.24793 | 18.90597 | 18618 ft | 374 kts | 306° |
| 2026-05-06 08:17 | 47.26434 | 18.87607 | 19214 ft | 377 kts | 306° |
| 2026-05-06 08:18 | 47.28080 | 18.84589 | 19836 ft | 380 kts | 306° |
| 2026-05-06 08:18 | 47.29732 | 18.81526 | 20420 ft | 383 kts | 306° |
| 2026-05-06 08:18 | 47.31386 | 18.78433 | 20989 ft | 386 kts | 306° |
| 2026-05-06 08:18 | 47.33051 | 18.75300 | 21534 ft | 390 kts | 306° |
| 2026-05-06 08:19 | 47.34724 | 18.72142 | 22069 ft | 393 kts | 306° |
| 2026-05-06 08:19 | 47.36413 | 18.68947 | 22614 ft | 396 kts | 305° |
| 2026-05-06 08:19 | 47.38116 | 18.65726 | 23180 ft | 399 kts | 305° |
| 2026-05-06 08:19 | 47.39827 | 18.62482 | 23666 ft | 402 kts | 305° |
| 2026-05-06 08:20 | 47.41469 | 18.59132 | 24112 ft | 402 kts | 296° |
| 2026-05-06 08:20 | 47.42482 | 18.55320 | 24594 ft | 399 kts | 284° |
| 2026-05-06 08:20 | 47.43254 | 18.51384 | 25079 ft | 400 kts | 283° |
| 2026-05-06 08:20 | 47.44013 | 18.47415 | 25521 ft | 402 kts | 283° |
| 2026-05-06 08:21 | 47.44784 | 18.43437 | 25938 ft | 405 kts | 284° |
| 2026-05-06 08:21 | 47.45576 | 18.39436 | 26348 ft | 407 kts | 284° |
| 2026-05-06 08:21 | 47.46381 | 18.35424 | 26786 ft | 409 kts | 284° |
| 2026-05-06 08:21 | 47.47195 | 18.31393 | 27210 ft | 411 kts | 284° |
| 2026-05-06 08:22 | 47.48012 | 18.27335 | 27616 ft | 413 kts | 284° |
| 2026-05-06 08:22 | 47.48805 | 18.23245 | 28002 ft | 414 kts | 282° |
| 2026-05-06 08:22 | 47.49506 | 18.19109 | 28387 ft | 416 kts | 281° |
| 2026-05-06 08:22 | 47.50173 | 18.14937 | 28763 ft | 418 kts | 281° |
| 2026-05-06 08:23 | 47.50837 | 18.10740 | 29137 ft | 420 kts | 281° |
| 2026-05-06 08:23 | 47.51510 | 18.06537 | 29500 ft | 422 kts | 281° |
| 2026-05-06 08:23 | 47.52196 | 18.02302 | 29847 ft | 424 kts | 281° |
| 2026-05-06 08:23 | 47.52890 | 17.98054 | 30151 ft | 426 kts | 281° |
| 2026-05-06 08:24 | 47.53589 | 17.93781 | 30437 ft | 427 kts | 281° |
| 2026-05-06 08:24 | 47.54288 | 17.89502 | 30751 ft | 428 kts | 281° |
| 2026-05-06 08:24 | 47.54976 | 17.85276 | 31118 ft | 427 kts | 281° |
| 2026-05-06 08:24 | 47.55830 | 17.81070 | 31548 ft | 427 kts | 288° |
| 2026-05-06 08:25 | 47.57096 | 17.77037 | 31984 ft | 427 kts | 297° |
| 2026-05-06 08:25 | 47.58582 | 17.73309 | 32389 ft | 426 kts | 297° |
| 2026-05-06 08:25 | 47.60131 | 17.69504 | 32754 ft | 425 kts | 298° |
| 2026-05-06 08:25 | 47.61657 | 17.65754 | 33135 ft | 424 kts | 297° |
| 2026-05-06 08:26 | 47.63166 | 17.62020 | 33542 ft | 421 kts | 297° |
| 2026-05-06 08:26 | 47.64640 | 17.58342 | 33938 ft | 419 kts | 297° |
| 2026-05-06 08:26 | 47.66118 | 17.54630 | 34226 ft | 418 kts | 297° |
| 2026-05-06 08:26 | 47.67592 | 17.50909 | 34440 ft | 419 kts | 296° |
| 2026-05-06 08:27 | 47.69071 | 17.47165 | 34661 ft | 420 kts | 296° |
| 2026-05-06 08:27 | 47.70543 | 17.43433 | 34931 ft | 419 kts | 296° |
| 2026-05-06 08:27 | 47.72014 | 17.39699 | 35199 ft | 419 kts | 296° |
| 2026-05-06 08:27 | 47.73486 | 17.35959 | 35415 ft | 419 kts | 296° |
| 2026-05-06 08:28 | 47.74958 | 17.32211 | 35626 ft | 420 kts | 296° |
| 2026-05-06 08:28 | 47.76427 | 17.28469 | 35868 ft | 420 kts | 296° |
| 2026-05-06 08:28 | 47.77899 | 17.24714 | 36088 ft | 420 kts | 296° |
| 2026-05-06 08:28 | 47.79368 | 17.20963 | 36305 ft | 420 kts | 296° |
| 2026-05-06 08:29 | 47.80834 | 17.17213 | 36521 ft | 420 kts | 296° |
| 2026-05-06 08:29 | 47.82307 | 17.13447 | 36732 ft | 421 kts | 296° |
| 2026-05-06 08:29 | 47.83965 | 17.09830 | 36910 ft | 426 kts | 305° |
| 2026-05-06 08:29 | 47.85928 | 17.06510 | 37110 ft | 428 kts | 308° |
| 2026-05-06 08:30 | 47.87948 | 17.03238 | 37298 ft | 429 kts | 308° |
| 2026-05-06 08:30 | 47.89977 | 16.99974 | 37483 ft | 430 kts | 308° |
| 2026-05-06 08:30 | 47.92007 | 16.96690 | 37671 ft | 430 kts | 308° |
| 2026-05-06 08:30 | 47.94023 | 16.93400 | 37863 ft | 430 kts | 307° |
| 2026-05-06 08:31 | 47.98056 | 16.86748 | 37876 ft | 433 kts | 307° |
| 2026-05-06 08:31 | 48.02076 | 16.80080 | 37858 ft | 431 kts | 307° |
| 2026-05-06 08:32 | 48.06068 | 16.73441 | 37862 ft | 428 kts | 307° |
| 2026-05-06 08:32 | 48.10037 | 16.66824 | 37854 ft | 427 kts | 307° |
| 2026-05-06 08:33 | 48.13971 | 16.60204 | 37861 ft | 424 kts | 305° |
| 2026-05-06 08:33 | 48.17655 | 16.53307 | 37865 ft | 423 kts | 302° |
| 2026-05-06 08:34 | 48.23057 | 16.42798 | 37877 ft | 426 kts | 302° |
| 2026-05-06 08:35 | 48.26701 | 16.35753 | 37866 ft | 429 kts | 303° |
| 2026-05-06 08:35 | 48.30372 | 16.28677 | 37875 ft | 430 kts | 302° |
| 2026-05-06 08:36 | 48.34061 | 16.21558 | 37868 ft | 433 kts | 302° |
| 2026-05-06 08:36 | 48.37768 | 16.14384 | 37869 ft | 436 kts | 302° |
| 2026-05-06 08:37 | 48.41494 | 16.07154 | 37864 ft | 438 kts | 302° |
| 2026-05-06 08:37 | 48.45226 | 15.99892 | 37869 ft | 439 kts | 302° |
| 2026-05-06 08:38 | 48.48966 | 15.92596 | 37859 ft | 440 kts | 302° |
| 2026-05-06 08:38 | 48.52704 | 15.85284 | 37858 ft | 440 kts | 302° |
| 2026-05-06 08:39 | 48.56433 | 15.77970 | 37856 ft | 439 kts | 302° |
| 2026-05-06 08:39 | 48.60144 | 15.70669 | 37857 ft | 438 kts | 302° |
| 2026-05-06 08:40 | 48.63848 | 15.63363 | 37848 ft | 437 kts | 302° |
| 2026-05-06 08:40 | 48.67532 | 15.56078 | 37855 ft | 435 kts | 302° |
| 2026-05-06 08:41 | 48.71198 | 15.48808 | 37857 ft | 434 kts | 302° |
| 2026-05-06 08:41 | 48.74853 | 15.41539 | 37852 ft | 433 kts | 301° |
| 2026-05-06 08:42 | 48.78490 | 15.34286 | 37858 ft | 432 kts | 301° |
| 2026-05-06 08:42 | 48.82113 | 15.27040 | 37848 ft | 431 kts | 301° |
| 2026-05-06 08:43 | 48.85725 | 15.19799 | 37852 ft | 429 kts | 301° |
| 2026-05-06 08:43 | 48.89319 | 15.12576 | 37850 ft | 428 kts | 301° |
| 2026-05-06 08:44 | 48.92862 | 15.05381 | 37845 ft | 427 kts | 301° |
| 2026-05-06 08:44 | 48.96398 | 14.98125 | 37854 ft | 427 kts | 300° |
| 2026-05-06 08:45 | 48.99931 | 14.90854 | 37848 ft | 427 kts | 300° |
| 2026-05-06 08:45 | 49.03465 | 14.83569 | 37836 ft | 427 kts | 300° |
| 2026-05-06 08:46 | 49.06992 | 14.76282 | 37849 ft | 428 kts | 300° |
| 2026-05-06 08:46 | 49.09949 | 14.70159 | 37843 ft | 428 kts | 300° |
| 2026-05-06 08:47 | 49.13454 | 14.62884 | 37839 ft | 428 kts | 300° |
| 2026-05-06 08:47 | 49.16981 | 14.55541 | 37842 ft | 429 kts | 300° |
| 2026-05-06 08:48 | 49.20504 | 14.48188 | 37836 ft | 429 kts | 300° |
| 2026-05-06 08:48 | 49.24030 | 14.40806 | 37831 ft | 430 kts | 300° |
| 2026-05-06 08:49 | 49.27553 | 14.33411 | 37836 ft | 430 kts | 300° |
| 2026-05-06 08:49 | 49.31074 | 14.26002 | 37837 ft | 430 kts | 300° |
| 2026-05-06 08:50 | 49.34593 | 14.18574 | 37842 ft | 431 kts | 300° |
| 2026-05-06 08:50 | 49.38108 | 14.11135 | 37821 ft | 430 kts | 300° |
| 2026-05-06 08:51 | 49.41615 | 14.03694 | 37834 ft | 430 kts | 300° |
| 2026-05-06 08:51 | 49.45118 | 13.96239 | 37828 ft | 430 kts | 300° |
| 2026-05-06 08:52 | 49.48609 | 13.88787 | 37841 ft | 429 kts | 300° |
| 2026-05-06 08:52 | 49.52119 | 13.81276 | 37828 ft | 429 kts | 300° |
| 2026-05-06 08:53 | 49.55574 | 13.73858 | 37830 ft | 429 kts | 300° |
| 2026-05-06 08:53 | 49.59071 | 13.66332 | 37828 ft | 429 kts | 300° |
| 2026-05-06 08:54 | 49.62537 | 13.58852 | 37827 ft | 428 kts | 300° |
| 2026-05-06 08:54 | 49.65991 | 13.51376 | 37826 ft | 428 kts | 300° |
| 2026-05-06 08:55 | 49.69440 | 13.43888 | 37832 ft | 427 kts | 300° |
| 2026-05-06 08:55 | 49.72883 | 13.36394 | 37831 ft | 428 kts | 300° |
| 2026-05-06 08:56 | 49.76321 | 13.28889 | 37833 ft | 428 kts | 300° |
| 2026-05-06 08:56 | 49.79735 | 13.21415 | 37829 ft | 428 kts | 300° |
| 2026-05-06 08:57 | 49.83196 | 13.13815 | 37830 ft | 429 kts | 300° |
| 2026-05-06 08:57 | 49.86611 | 13.06297 | 37827 ft | 431 kts | 300° |
| 2026-05-06 08:58 | 49.90061 | 12.98678 | 37819 ft | 432 kts | 300° |
| 2026-05-06 08:58 | 49.93513 | 12.91036 | 37819 ft | 433 kts | 300° |
| 2026-05-06 08:59 | 49.96968 | 12.83363 | 37820 ft | 434 kts | 300° |
| 2026-05-06 08:59 | 50.00426 | 12.75660 | 37824 ft | 435 kts | 300° |
| 2026-05-06 09:00 | 50.03888 | 12.67928 | 37811 ft | 436 kts | 300° |
| 2026-05-06 09:00 | 50.07346 | 12.60178 | 37809 ft | 436 kts | 299° |
| 2026-05-06 09:01 | 50.10790 | 12.52417 | 37821 ft | 436 kts | 299° |
| 2026-05-06 09:01 | 50.14242 | 12.44652 | 37810 ft | 435 kts | 299° |
| 2026-05-06 09:02 | 50.17680 | 12.36880 | 37797 ft | 435 kts | 298° |
| 2026-05-06 09:02 | 50.20251 | 12.28519 | 37801 ft | 424 kts | 284° |
| 2026-05-06 09:03 | 50.22048 | 12.19767 | 37798 ft | 423 kts | 283° |
| 2026-05-06 09:03 | 50.23824 | 12.11003 | 37793 ft | 423 kts | 283° |
| 2026-05-06 09:04 | 50.25622 | 12.02240 | 37805 ft | 423 kts | 283° |
| 2026-05-06 09:04 | 50.27430 | 11.93484 | 37807 ft | 423 kts | 283° |
| 2026-05-06 09:05 | 50.29236 | 11.84721 | 37810 ft | 424 kts | 283° |
| 2026-05-06 09:05 | 50.31039 | 11.75936 | 37802 ft | 424 kts | 283° |
| 2026-05-06 09:06 | 50.32836 | 11.67139 | 37804 ft | 425 kts | 283° |
| 2026-05-06 09:06 | 50.34628 | 11.58330 | 37796 ft | 425 kts | 283° |
| 2026-05-06 09:07 | 50.36417 | 11.49493 | 37798 ft | 426 kts | 283° |
| 2026-05-06 09:07 | 50.38200 | 11.40642 | 37792 ft | 426 kts | 283° |
| 2026-05-06 09:08 | 50.39982 | 11.31762 | 37783 ft | 427 kts | 283° |
| 2026-05-06 09:08 | 50.41758 | 11.22869 | 37777 ft | 429 kts | 283° |
| 2026-05-06 09:09 | 50.43535 | 11.13928 | 37768 ft | 430 kts | 283° |
| 2026-05-06 09:09 | 50.45309 | 11.04966 | 37775 ft | 430 kts | 283° |
| 2026-05-06 09:10 | 50.47075 | 10.96002 | 37774 ft | 431 kts | 283° |
| 2026-05-06 09:10 | 50.48838 | 10.87005 | 37763 ft | 431 kts | 283° |
| 2026-05-06 09:11 | 50.50592 | 10.78019 | 37767 ft | 431 kts | 283° |
| 2026-05-06 09:11 | 50.52328 | 10.69081 | 37769 ft | 430 kts | 283° |
| 2026-05-06 09:12 | 50.54067 | 10.60087 | 37766 ft | 430 kts | 283° |
| 2026-05-06 09:12 | 50.55800 | 10.51081 | 37765 ft | 430 kts | 283° |
| 2026-05-06 09:13 | 50.57523 | 10.42082 | 37767 ft | 429 kts | 283° |
| 2026-05-06 09:13 | 50.59237 | 10.33085 | 37760 ft | 429 kts | 283° |
| 2026-05-06 09:14 | 50.60942 | 10.24098 | 37760 ft | 429 kts | 283° |
| 2026-05-06 09:14 | 50.62641 | 10.15096 | 37756 ft | 429 kts | 283° |
| 2026-05-06 09:15 | 50.64334 | 10.06086 | 37767 ft | 429 kts | 283° |
| 2026-05-06 09:15 | 50.66022 | 9.97053 | 37758 ft | 430 kts | 282° |
| 2026-05-06 09:16 | 50.67703 | 9.88015 | 37764 ft | 430 kts | 282° |
| 2026-05-06 09:16 | 50.69382 | 9.78950 | 37761 ft | 431 kts | 282° |
| 2026-05-06 09:17 | 50.71059 | 9.69849 | 37754 ft | 432 kts | 282° |
| 2026-05-06 09:17 | 50.72733 | 9.60723 | 37766 ft | 433 kts | 283° |
| 2026-05-06 09:18 | 50.74660 | 9.51672 | 37754 ft | 436 kts | 286° |
| 2026-05-06 09:18 | 50.76770 | 9.42661 | 37763 ft | 438 kts | 287° |
| 2026-05-06 09:19 | 50.78866 | 9.33635 | 37759 ft | 439 kts | 286° |
| 2026-05-06 09:19 | 50.80936 | 9.24556 | 37750 ft | 439 kts | 286° |
| 2026-05-06 09:20 | 50.82990 | 9.15452 | 37757 ft | 439 kts | 286° |
| 2026-05-06 09:20 | 50.85035 | 9.06336 | 37752 ft | 440 kts | 286° |
| 2026-05-06 09:21 | 50.87074 | 8.97218 | 37750 ft | 440 kts | 286° |
| 2026-05-06 09:21 | 50.89106 | 8.88087 | 37753 ft | 439 kts | 286° |
| 2026-05-06 09:22 | 50.91130 | 8.78956 | 37754 ft | 439 kts | 286° |
| 2026-05-06 09:22 | 50.93146 | 8.69821 | 37756 ft | 439 kts | 286° |
| 2026-05-06 09:23 | 50.95156 | 8.60674 | 37753 ft | 439 kts | 286° |
| 2026-05-06 09:23 | 50.97155 | 8.51535 | 37752 ft | 439 kts | 286° |
| 2026-05-06 09:24 | 50.99133 | 8.42449 | 37758 ft | 438 kts | 286° |
| 2026-05-06 09:24 | 51.01117 | 8.33307 | 37767 ft | 438 kts | 286° |
| 2026-05-06 09:25 | 51.03077 | 8.24137 | 37773 ft | 438 kts | 285° |
| 2026-05-06 09:25 | 51.04997 | 8.14959 | 37781 ft | 438 kts | 285° |
| 2026-05-06 09:26 | 51.06910 | 8.05763 | 37784 ft | 438 kts | 285° |
| 2026-05-06 09:26 | 51.08821 | 7.96556 | 37765 ft | 439 kts | 285° |
| 2026-05-06 09:27 | 51.10728 | 7.87336 | 37771 ft | 439 kts | 285° |
| 2026-05-06 09:27 | 51.12630 | 7.78094 | 37771 ft | 440 kts | 285° |
| 2026-05-06 09:28 | 51.14529 | 7.68833 | 37778 ft | 440 kts | 285° |
| 2026-05-06 09:28 | 51.16422 | 7.59550 | 37784 ft | 442 kts | 285° |
| 2026-05-06 09:29 | 51.18314 | 7.50234 | 37778 ft | 442 kts | 285° |
| 2026-05-06 09:29 | 51.20198 | 7.40911 | 37768 ft | 442 kts | 285° |
| 2026-05-06 09:30 | 51.21758 | 7.33157 | 37776 ft | 441 kts | 285° |
| 2026-05-06 09:30 | 51.23624 | 7.23843 | 37784 ft | 441 kts | 285° |
| 2026-05-06 09:31 | 51.25482 | 7.14528 | 37800 ft | 441 kts | 284° |
| 2026-05-06 09:31 | 51.27349 | 7.05115 | 37799 ft | 442 kts | 284° |
| 2026-05-06 09:32 | 51.29186 | 6.95807 | 37799 ft | 442 kts | 284° |
| 2026-05-06 09:32 | 51.31027 | 6.86441 | 37804 ft | 442 kts | 284° |
| 2026-05-06 09:33 | 51.32858 | 6.77078 | 37792 ft | 441 kts | 284° |
| 2026-05-06 09:33 | 51.34676 | 6.67735 | 37805 ft | 440 kts | 284° |
| 2026-05-06 09:34 | 51.36488 | 6.58382 | 37804 ft | 440 kts | 284° |
| 2026-05-06 09:34 | 51.38289 | 6.49031 | 37828 ft | 439 kts | 284° |
| 2026-05-06 09:35 | 51.40082 | 6.39684 | 37827 ft | 439 kts | 284° |
| 2026-05-06 09:35 | 51.41867 | 6.30327 | 37824 ft | 439 kts | 284° |
| 2026-05-06 09:36 | 51.43645 | 6.20960 | 37831 ft | 440 kts | 284° |
| 2026-05-06 09:36 | 51.45419 | 6.11569 | 37825 ft | 440 kts | 284° |
| 2026-05-06 09:37 | 51.47184 | 6.02178 | 37830 ft | 440 kts | 284° |
| 2026-05-06 09:37 | 51.48941 | 5.92785 | 37832 ft | 440 kts | 284° |
| 2026-05-06 09:38 | 51.50695 | 5.83360 | 37863 ft | 441 kts | 284° |
| 2026-05-06 09:38 | 51.52449 | 5.73886 | 37854 ft | 443 kts | 284° |
| 2026-05-06 09:39 | 51.54194 | 5.64411 | 37852 ft | 443 kts | 284° |
| 2026-05-06 09:39 | 51.55933 | 5.54921 | 37857 ft | 442 kts | 284° |
| 2026-05-06 09:40 | 51.57660 | 5.45449 | 37859 ft | 442 kts | 284° |
| 2026-05-06 09:40 | 51.60235 | 5.31233 | 37853 ft | 441 kts | 284° |
| 2026-05-06 09:41 | 51.61938 | 5.21765 | 37859 ft | 441 kts | 284° |
| 2026-05-06 09:41 | 51.63635 | 5.12289 | 37861 ft | 440 kts | 284° |
| 2026-05-06 09:42 | 51.65320 | 5.02824 | 37861 ft | 440 kts | 284° |
| 2026-05-06 09:42 | 51.66987 | 4.93413 | 37855 ft | 439 kts | 284° |
| 2026-05-06 09:43 | 51.68655 | 4.83947 | 37857 ft | 439 kts | 283° |
| 2026-05-06 09:43 | 51.70315 | 4.74473 | 37861 ft | 439 kts | 284° |
| 2026-05-06 09:44 | 51.71965 | 4.65014 | 37856 ft | 438 kts | 283° |
| 2026-05-06 09:44 | 51.73607 | 4.55541 | 37875 ft | 438 kts | 283° |
| 2026-05-06 09:45 | 51.75242 | 4.46061 | 37882 ft | 438 kts | 283° |
| 2026-05-06 09:45 | 51.76870 | 4.36574 | 37887 ft | 438 kts | 283° |
| 2026-05-06 09:46 | 51.78488 | 4.27090 | 37883 ft | 438 kts | 283° |
| 2026-05-06 09:46 | 51.80100 | 4.17593 | 37875 ft | 437 kts | 283° |
| 2026-05-06 09:47 | 51.80894 | 4.12895 | 37646 ft | 430 kts | 283° |
| 2026-05-06 09:47 | 51.81679 | 4.08245 | 37090 ft | 428 kts | 283° |
| 2026-05-06 09:47 | 51.82459 | 4.03605 | 36559 ft | 427 kts | 283° |
| 2026-05-06 09:47 | 51.83234 | 3.98976 | 36096 ft | 425 kts | 283° |
| 2026-05-06 09:48 | 51.83998 | 3.94411 | 35674 ft | 415 kts | 283° |
| 2026-05-06 09:48 | 51.84743 | 3.89948 | 35240 ft | 407 kts | 283° |
| 2026-05-06 09:48 | 51.85471 | 3.85572 | 34709 ft | 401 kts | 283° |
| 2026-05-06 09:48 | 51.86204 | 3.81148 | 33955 ft | 403 kts | 284° |
| 2026-05-06 09:49 | 51.86918 | 3.76828 | 33202 ft | 402 kts | 284° |
| 2026-05-06 09:49 | 51.87637 | 3.72472 | 32823 ft | 399 kts | 284° |
| 2026-05-06 09:49 | 51.88349 | 3.68148 | 32388 ft | 397 kts | 283° |
| 2026-05-06 09:49 | 51.89056 | 3.63844 | 31997 ft | 394 kts | 283° |
| 2026-05-06 09:50 | 51.89755 | 3.59574 | 31618 ft | 391 kts | 283° |
| 2026-05-06 09:50 | 51.90448 | 3.55332 | 31253 ft | 388 kts | 283° |
| 2026-05-06 09:50 | 51.91135 | 3.51120 | 30890 ft | 386 kts | 283° |
| 2026-05-06 09:50 | 51.91816 | 3.46930 | 30533 ft | 383 kts | 282° |
| 2026-05-06 09:51 | 51.92491 | 3.42772 | 30183 ft | 381 kts | 282° |
| 2026-05-06 09:51 | 51.93161 | 3.38628 | 29806 ft | 379 kts | 282° |
| 2026-05-06 09:51 | 51.93825 | 3.34517 | 29400 ft | 376 kts | 282° |
| 2026-05-06 09:51 | 51.94482 | 3.30437 | 29040 ft | 372 kts | 282° |
| 2026-05-06 09:52 | 51.95130 | 3.26406 | 28666 ft | 368 kts | 282° |
| 2026-05-06 09:52 | 51.95770 | 3.22409 | 28319 ft | 365 kts | 282° |
| 2026-05-06 09:52 | 51.96392 | 3.18440 | 27981 ft | 360 kts | 279° |
| 2026-05-06 09:52 | 51.96521 | 3.14493 | 27932 ft | 344 kts | 262° |
| 2026-05-06 09:53 | 51.96270 | 3.10673 | 27913 ft | 338 kts | 261° |
| 2026-05-06 09:53 | 51.95996 | 3.06937 | 27909 ft | 329 kts | 261° |
| 2026-05-06 09:53 | 51.95724 | 3.03253 | 27929 ft | 333 kts | 261° |
| 2026-05-06 09:53 | 51.95449 | 2.99451 | 27946 ft | 347 kts | 262° |
| 2026-05-06 09:54 | 51.95171 | 2.95496 | 27934 ft | 359 kts | 261° |
| 2026-05-06 09:54 | 51.94893 | 2.91469 | 27802 ft | 358 kts | 261° |
| 2026-05-06 09:54 | 51.94622 | 2.87469 | 27299 ft | 356 kts | 262° |
| 2026-05-06 09:54 | 51.94353 | 2.83499 | 26666 ft | 354 kts | 262° |
| 2026-05-06 09:55 | 51.94085 | 2.79558 | 26115 ft | 349 kts | 262° |
| 2026-05-06 09:55 | 51.93821 | 2.75681 | 25575 ft | 345 kts | 262° |
| 2026-05-06 09:55 | 51.93556 | 2.71831 | 24997 ft | 342 kts | 262° |
| 2026-05-06 09:55 | 51.93293 | 2.68032 | 24546 ft | 336 kts | 262° |
| 2026-05-06 09:56 | 51.93035 | 2.64305 | 24247 ft | 330 kts | 262° |
| 2026-05-06 09:56 | 51.92782 | 2.60619 | 23954 ft | 328 kts | 262° |
| 2026-05-06 09:56 | 51.92531 | 2.56963 | 23703 ft | 326 kts | 262° |
| 2026-05-06 09:56 | 51.92280 | 2.53325 | 23435 ft | 324 kts | 263° |
| 2026-05-06 09:57 | 51.92029 | 2.49706 | 23136 ft | 323 kts | 262° |
| 2026-05-06 09:57 | 51.91775 | 2.46071 | 22872 ft | 326 kts | 263° |
| 2026-05-06 09:57 | 51.91521 | 2.42419 | 22613 ft | 326 kts | 262° |
| 2026-05-06 09:57 | 51.91266 | 2.38783 | 22348 ft | 323 kts | 263° |
| 2026-05-06 09:58 | 51.91011 | 2.35183 | 22091 ft | 321 kts | 262° |
| 2026-05-06 09:58 | 51.90766 | 2.31591 | 21825 ft | 321 kts | 264° |
| 2026-05-06 09:58 | 51.90635 | 2.27962 | 21494 ft | 324 kts | 267° |
| 2026-05-06 09:58 | 51.90564 | 2.24313 | 21172 ft | 325 kts | 268° |
| 2026-05-06 09:59 | 51.90503 | 2.20642 | 20845 ft | 328 kts | 268° |
| 2026-05-06 09:59 | 51.90436 | 2.16930 | 20512 ft | 330 kts | 267° |
| 2026-05-06 09:59 | 51.90361 | 2.13218 | 20175 ft | 330 kts | 267° |
| 2026-05-06 09:59 | 51.90280 | 2.09524 | 19840 ft | 328 kts | 267° |
| 2026-05-06 10:00 | 51.90195 | 2.05848 | 19502 ft | 325 kts | 267° |
| 2026-05-06 10:00 | 51.90109 | 2.02211 | 19174 ft | 322 kts | 268° |
| 2026-05-06 10:00 | 51.90022 | 1.98604 | 18857 ft | 319 kts | 268° |
| 2026-05-06 10:00 | 51.89934 | 1.95030 | 18533 ft | 317 kts | 268° |
| 2026-05-06 10:01 | 51.89859 | 1.91520 | 18221 ft | 315 kts | 271° |
| 2026-05-06 10:01 | 51.90074 | 1.87982 | 17957 ft | 310 kts | 278° |
| 2026-05-06 10:01 | 51.90402 | 1.84601 | 17682 ft | 306 kts | 279° |
| 2026-05-06 10:01 | 51.90752 | 1.81184 | 17402 ft | 302 kts | 279° |
| 2026-05-06 10:02 | 51.91093 | 1.77845 | 17139 ft | 299 kts | 279° |
| 2026-05-06 10:02 | 51.91423 | 1.74530 | 16865 ft | 297 kts | 279° |
| 2026-05-06 10:02 | 51.91744 | 1.71244 | 16608 ft | 294 kts | 278° |
| 2026-05-06 10:02 | 51.92056 | 1.67986 | 16349 ft | 292 kts | 278° |
| 2026-05-06 10:03 | 51.92360 | 1.64774 | 16096 ft | 293 kts | 278° |
| 2026-05-06 10:03 | 51.92666 | 1.61515 | 15839 ft | 293 kts | 278° |
| 2026-05-06 10:03 | 51.92969 | 1.58264 | 15585 ft | 291 kts | 278° |
| 2026-05-06 10:03 | 51.93269 | 1.55024 | 15335 ft | 290 kts | 278° |
| 2026-05-06 10:04 | 51.93565 | 1.51798 | 15084 ft | 289 kts | 278° |
| 2026-05-06 10:04 | 51.93864 | 1.48546 | 14839 ft | 288 kts | 278° |
| 2026-05-06 10:04 | 51.94153 | 1.45381 | 14596 ft | 287 kts | 278° |
| 2026-05-06 10:04 | 51.94443 | 1.42192 | 14351 ft | 285 kts | 278° |
| 2026-05-06 10:05 | 51.94731 | 1.39020 | 14107 ft | 285 kts | 278° |
| 2026-05-06 10:05 | 51.95018 | 1.35842 | 13871 ft | 286 kts | 278° |
| 2026-05-06 10:05 | 51.95306 | 1.32642 | 13627 ft | 287 kts | 278° |
| 2026-05-06 10:05 | 51.95594 | 1.29432 | 13357 ft | 289 kts | 278° |
| 2026-05-06 10:06 | 51.95883 | 1.26206 | 13096 ft | 290 kts | 278° |
| 2026-05-06 10:06 | 51.96176 | 1.22923 | 12826 ft | 291 kts | 279° |
| 2026-05-06 10:06 | 51.96456 | 1.19726 | 12564 ft | 290 kts | 277° |
| 2026-05-06 10:06 | 51.96564 | 1.16450 | 12312 ft | 290 kts | 272° |
| 2026-05-06 10:07 | 51.96594 | 1.13172 | 12045 ft | 291 kts | 271° |
| 2026-05-06 10:07 | 51.96608 | 1.09902 | 11786 ft | 289 kts | 271° |
| 2026-05-06 10:07 | 51.96617 | 1.06616 | 11519 ft | 286 kts | 271° |
| 2026-05-06 10:07 | 51.96620 | 1.03405 | 11269 ft | 284 kts | 271° |
| 2026-05-06 10:08 | 51.96620 | 1.00221 | 11015 ft | 280 kts | 271° |
| 2026-05-06 10:08 | 51.96615 | 0.97071 | 10768 ft | 279 kts | 271° |
| 2026-05-06 10:08 | 51.96607 | 0.93981 | 10524 ft | 277 kts | 271° |
| 2026-05-06 10:08 | 51.96595 | 0.90819 | 10279 ft | 276 kts | 271° |
| 2026-05-06 10:09 | 51.96586 | 0.88761 | 10115 ft | 275 kts | 271° |
| 2026-05-06 10:09 | 51.96574 | 0.86709 | 9954 ft | 275 kts | 271° |
| 2026-05-06 10:09 | 51.96556 | 0.83610 | 9695 ft | 274 kts | 271° |
| 2026-05-06 10:09 | 51.96415 | 0.80540 | 9399 ft | 275 kts | 256° |
| 2026-05-06 10:10 | 51.95734 | 0.77688 | 9160 ft | 275 kts | 247° |
| 2026-05-06 10:10 | 51.94924 | 0.74881 | 8896 ft | 275 kts | 246° |
| 2026-05-06 10:10 | 51.94102 | 0.72085 | 8631 ft | 275 kts | 246° |
| 2026-05-06 10:10 | 51.93278 | 0.69296 | 8375 ft | 274 kts | 246° |
| 2026-05-06 10:11 | 51.92449 | 0.66512 | 8120 ft | 274 kts | 244° |
| 2026-05-06 10:11 | 51.91527 | 0.63814 | 8011 ft | 273 kts | 242° |
| 2026-05-06 10:11 | 51.90575 | 0.61171 | 7984 ft | 270 kts | 241° |
| 2026-05-06 10:11 | 51.89620 | 0.58543 | 7828 ft | 272 kts | 241° |
| 2026-05-06 10:12 | 51.88653 | 0.55890 | 7603 ft | 276 kts | 241° |
| 2026-05-06 10:12 | 51.87989 | 0.54069 | 7444 ft | 279 kts | 241° |
| 2026-05-06 10:12 | 51.87002 | 0.51360 | 7216 ft | 279 kts | 241° |
| 2026-05-06 10:12 | 51.86019 | 0.48671 | 6961 ft | 276 kts | 241° |
| 2026-05-06 10:13 | 51.85043 | 0.46007 | 6724 ft | 275 kts | 241° |
| 2026-05-06 10:13 | 51.84065 | 0.43345 | 6501 ft | 274 kts | 241° |
| 2026-05-06 10:13 | 51.83105 | 0.40740 | 6257 ft | 272 kts | 241° |
| 2026-05-06 10:13 | 51.82124 | 0.38084 | 6003 ft | 270 kts | 241° |
| 2026-05-06 10:14 | 51.81162 | 0.35487 | 5747 ft | 268 kts | 241° |
| 2026-05-06 10:14 | 51.80209 | 0.32923 | 5498 ft | 266 kts | 241° |
| 2026-05-06 10:14 | 51.79254 | 0.30360 | 5151 ft | 267 kts | 241° |
| 2026-05-06 10:14 | 51.78293 | 0.27773 | 4771 ft | 270 kts | 241° |
| 2026-05-06 10:15 | 51.77322 | 0.25157 | 4379 ft | 273 kts | 241° |
| 2026-05-06 10:15 | 51.76341 | 0.22521 | 3995 ft | 275 kts | 241° |
| 2026-05-06 10:15 | 51.75354 | 0.19865 | 3624 ft | 278 kts | 241° |
| 2026-05-06 10:15 | 51.74350 | 0.17179 | 3243 ft | 279 kts | 241° |
| 2026-05-06 10:16 | 51.73359 | 0.14540 | 2903 ft | 271 kts | 240° |
| 2026-05-06 10:16 | 51.72390 | 0.11992 | 2610 ft | 262 kts | 241° |
| 2026-05-06 10:16 | 51.71447 | 0.09522 | 2349 ft | 255 kts | 241° |
| 2026-05-06 10:16 | 51.70535 | 0.07145 | 2090 ft | 243 kts | 241° |
| 2026-05-06 10:17 | 51.69911 | 0.04867 | 1994 ft | 216 kts | 266° |
| 2026-05-06 10:17 | 51.70180 | 0.02745 | 1987 ft | 181 kts | 311° |
| 2026-05-06 10:17 | 51.71170 | 0.01859 | 1977 ft | 158 kts | 3° |
| 2026-05-06 10:17 | 51.72178 | 0.02219 | 2021 ft | 158 kts | 13° |
| 2026-05-06 10:18 | 51.73237 | 0.02723 | 2017 ft | 159 kts | 20° |
| 2026-05-06 10:18 | 51.74241 | 0.03460 | 1979 ft | 157 kts | 24° |
| 2026-05-06 10:18 | 51.75199 | 0.04297 | 1973 ft | 157 kts | 30° |
| 2026-05-06 10:18 | 51.76081 | 0.05281 | 1968 ft | 155 kts | 33° |
| 2026-05-06 10:19 | 51.76959 | 0.06313 | 1995 ft | 155 kts | 34° |
| 2026-05-06 10:19 | 51.77788 | 0.07407 | 1993 ft | 157 kts | 38° |
| 2026-05-06 10:19 | 51.78626 | 0.08619 | 1994 ft | 161 kts | 40° |
| 2026-05-06 10:19 | 51.79447 | 0.09846 | 1994 ft | 160 kts | 40° |
| 2026-05-06 10:20 | 51.80254 | 0.11062 | 1985 ft | 158 kts | 40° |
| 2026-05-06 10:20 | 51.81040 | 0.12247 | 2002 ft | 150 kts | 40° |
| 2026-05-06 10:20 | 51.81777 | 0.13358 | 1989 ft | 145 kts | 40° |
| 2026-05-06 10:20 | 51.82544 | 0.14514 | 1822 ft | 150 kts | 40° |
| 2026-05-06 10:21 | 51.83295 | 0.15646 | 1600 ft | 146 kts | 39° |
| 2026-05-06 10:21 | 51.84035 | 0.16767 | 1394 ft | 145 kts | 41° |
| 2026-05-06 10:21 | 51.84762 | 0.17884 | 1188 ft | 144 kts | 41° |
| 2026-05-06 10:21 | 51.85324 | 0.18756 | 1045 ft | 145 kts | 41° |
| 2026-05-06 10:22 | 51.86057 | 0.19877 | 849 ft | 145 kts | 39° |
| 2026-05-06 10:22 | 51.86819 | 0.20979 | 640 ft | 146 kts | 37° |
| 2026-05-06 10:22 | 51.87553 | 0.22067 | 425 ft | 144 kts | 39° |
| 2026-05-06 10:22 | 51.88256 | 0.23120 | 338 ft | 127 kts | 40° |
| 2026-05-06 10:23 | 51.88744 | 0.23839 | 335 ft | 63 kts | 43° |
| 2026-05-06 10:23 | 51.88953 | 0.24155 | 340 ft | 34 kts | 44° |
| 2026-05-06 10:23 | 51.89077 | 0.24451 | 338 ft | 31 kts | 64° |
| 2026-05-06 10:23 | 51.89150 | 0.24741 | 347 ft | 19 kts | 68° |
| 2026-05-06 10:24 | 51.89166 | 0.24837 | 348 ft | 4 kts | 90° |
| 2026-05-06 10:24 | 51.89166 | 0.24839 | 346 ft | 0 kts | 91° |
| 2026-05-06 10:24 | 51.89164 | 0.24851 | 347 ft | 4 kts | 105° |
| 2026-05-06 10:24 | 51.89155 | 0.24931 | 349 ft | 10 kts | 74° |
| 2026-05-06 10:25 | 51.89207 | 0.25030 | 348 ft | 12 kts | 50° |
| 2026-05-06 10:25 | 51.89239 | 0.25109 | 353 ft | 6 kts | 59° |
| 2026-05-06 10:25 | 51.89247 | 0.25129 | 353 ft | 3 kts | 58° |
| 2026-05-06 10:25 | 51.89275 | 0.25196 | 354 ft | 12 kts | 52° |
| 2026-05-06 10:26 | 51.89355 | 0.25319 | 348 ft | 19 kts | 43° |
| 2026-05-06 10:26 | 51.89411 | 0.25481 | 348 ft | 15 kts | 113° |
| 2026-05-06 10:26 | 51.89400 | 0.25611 | 355 ft | 12 kts | 55° |
| 2026-05-06 10:26 | 51.89443 | 0.25680 | 355 ft | 12 kts | 44° |
| 2026-05-06 10:27 | 51.89504 | 0.25771 | 350 ft | 12 kts | 43° |
| 2026-05-06 10:27 | 51.89525 | 0.25859 | 350 ft | 12 kts | 107° |
| 2026-05-06 10:27 | 51.89465 | 0.25972 | 348 ft | 17 kts | 133° |
| 2026-05-06 10:27 | 51.89380 | 0.26119 | 357 ft | 19 kts | 133° |
| 2026-05-06 10:28 | 51.89346 | 0.26183 | 352 ft | 3 kts | 110° |
| 2026-05-06 10:28 | 51.89355 | 0.26216 | 348 ft | 4 kts | 54° |
| 2026-05-06 10:28 | 51.89372 | 0.26245 | 348 ft | 2 kts | 44° |
| 2026-05-06 10:28 | 51.89377 | 0.26254 | 348 ft | 0 kts | 44° |